createdAt,value
2019-06-01T00:00:49.618Z,6.5
2019-06-01T00:02:55.285Z,6.5
2019-06-01T00:04:50.192Z,6.7
2019-06-01T00:06:49.579Z,6.3
2019-06-01T00:08:49.750Z,6.3
2019-06-01T00:10:49.820Z,6.4
2019-06-01T00:12:49.920Z,6.4
2019-06-01T00:14:50.152Z,6.1
2019-06-01T00:16:50.367Z,7.2
2019-06-01T00:18:50.348Z,7.2
2019-06-01T00:20:50.693Z,6.6
2019-06-01T00:22:49.990Z,6.6
2019-06-01T00:24:50.069Z,5.9
2019-06-01T00:26:49.921Z,6.5
2019-06-01T00:28:50.066Z,6.5
2019-06-01T00:30:50.261Z,6.6
2019-06-01T00:32:51.310Z,6.6
2019-06-01T00:34:50.074Z,6.4
2019-06-01T00:36:50.260Z,6.2
2019-06-01T00:38:50.020Z,6.2
2019-06-01T00:40:50.177Z,6.8
2019-06-01T00:42:50.322Z,6.4
2019-06-01T00:44:50.508Z,6.6
2019-06-01T00:46:50.753Z,6.5
2019-06-01T00:48:50.039Z,6.5
2019-06-01T00:50:50.987Z,6.1
2019-06-01T00:52:51.377Z,6.5
2019-06-01T00:54:49.604Z,6.5
2019-06-01T00:56:49.774Z,6.5
2019-06-01T00:58:49.910Z,6.4
2019-06-01T01:00:51.940Z,6.4
2019-06-01T01:02:50.358Z,6.4
2019-06-01T01:04:50.383Z,6.8
2019-06-01T01:06:50.853Z,6.4
2019-06-01T01:08:49.662Z,6.4
2019-06-01T01:10:51.057Z,6.4
2019-06-01T01:12:51.103Z,6.5
2019-06-01T01:14:49.658Z,6.8
2019-06-01T01:16:50.168Z,6.6
2019-06-01T01:18:49.870Z,6.6
2019-06-01T01:20:50.087Z,6.9
2019-06-01T01:22:50.291Z,6.9
2019-06-01T01:24:50.484Z,7.4
2019-06-01T01:26:50.485Z,7.0
2019-06-01T01:28:50.699Z,7.0
2019-06-01T01:31:02.594Z,6.9
2019-06-01T01:32:51.598Z,7.2
2019-06-01T01:34:51.230Z,8.2
2019-06-01T01:36:49.869Z,7.6
2019-06-01T01:38:50.452Z,7.6
2019-06-01T01:40:50.397Z,7.2
2019-06-01T01:42:50.543Z,7.4
2019-06-01T01:44:50.482Z,7.8
2019-06-01T01:46:50.695Z,7.8
2019-06-01T01:48:49.978Z,7.7
2019-06-01T01:50:50.246Z,7.4
2019-06-01T01:52:50.648Z,7.9
2019-06-01T01:54:50.612Z,7.9
2019-06-01T01:56:50.013Z,8.0
2019-06-01T01:58:50.327Z,7.7
2019-06-01T02:00:49.616Z,7.4
2019-06-01T02:02:49.832Z,7.2
2019-06-01T02:04:50.619Z,7.0
2019-06-01T02:06:49.847Z,7.0
2019-06-01T02:08:50.976Z,7.5
2019-06-01T02:10:51.173Z,8.0
2019-06-01T02:12:51.326Z,7.5
2019-06-01T02:14:49.635Z,7.5
2019-06-01T02:16:49.896Z,7.5
2019-06-01T02:18:49.994Z,7.9
2019-06-01T02:20:50.087Z,7.4
2019-06-01T02:22:50.232Z,7.7
2019-06-01T02:24:50.399Z,7.7
2019-06-01T02:26:49.862Z,8.0
2019-06-01T02:28:50.064Z,7.3
2019-06-01T02:30:50.283Z,7.4
2019-06-01T02:32:49.617Z,7.3
2019-06-01T02:34:50.184Z,7.3
2019-06-01T02:36:49.497Z,9.0
2019-06-01T02:38:49.732Z,7.5
2019-06-01T02:40:49.815Z,7.2
2019-06-01T02:42:49.951Z,7.9
2019-06-01T02:44:50.127Z,7.7
2019-06-01T02:46:50.418Z,7.7
2019-06-01T02:48:49.525Z,8.4
2019-06-01T02:50:49.648Z,7.7
2019-06-01T02:52:49.785Z,7.9
2019-06-01T02:54:49.903Z,7.9
2019-06-01T02:56:50.231Z,8.0
2019-06-01T02:58:50.366Z,8.1
2019-06-01T03:00:49.474Z,8.0
2019-06-01T03:02:49.650Z,8.5
2019-06-01T03:04:50.058Z,8.5
2019-06-01T03:06:50.345Z,8.6
2019-06-01T03:08:49.496Z,8.4
2019-06-01T03:10:49.531Z,8.9
2019-06-01T03:12:49.734Z,8.9
2019-06-01T03:14:49.794Z,8.5
2019-06-01T03:16:50.041Z,8.8
2019-06-01T03:18:50.154Z,8.1
2019-06-01T03:20:50.289Z,8.0
2019-06-01T03:22:49.457Z,8.0
2019-06-01T03:24:49.588Z,7.8
2019-06-01T03:26:49.944Z,9.0
2019-06-01T03:28:50.087Z,8.2
2019-06-01T03:30:50.255Z,8.2
2019-06-01T03:32:50.361Z,7.6
2019-06-01T03:34:50.003Z,7.6
2019-06-01T03:36:50.314Z,8.3
2019-06-01T03:38:50.453Z,7.8
2019-06-01T03:40:49.783Z,8.4
2019-06-01T03:42:50.026Z,8.4
2019-06-01T03:44:50.190Z,7.7
2019-06-01T03:46:49.669Z,8.3
2019-06-01T03:48:49.726Z,7.4
2019-06-01T03:50:49.768Z,7.4
2019-06-01T03:52:49.804Z,7.7
2019-06-01T03:54:49.947Z,7.7
2019-06-01T03:56:50.111Z,7.8
2019-06-01T03:58:50.224Z,8.0
2019-06-01T04:00:50.341Z,8.3
2019-06-01T04:02:49.430Z,8.3
2019-06-01T04:04:50.036Z,7.6
2019-06-01T04:06:50.350Z,7.5
2019-06-01T04:08:50.397Z,7.5
2019-06-01T04:10:49.582Z,7.0
2019-06-01T04:12:49.634Z,7.3
2019-06-01T04:14:49.690Z,7.0
2019-06-01T04:16:50.019Z,7.0
2019-06-01T04:18:50.140Z,7.0
2019-06-01T04:20:50.314Z,7.4
2019-06-01T04:22:50.391Z,6.9
2019-06-01T04:24:49.457Z,7.3
2019-06-01T04:26:49.868Z,7.1
2019-06-01T04:28:50.131Z,7.1
2019-06-01T04:30:50.349Z,6.7
2019-06-01T04:32:50.428Z,6.7
2019-06-01T04:34:50.193Z,6.6
2019-06-01T04:36:49.445Z,7.0
2019-06-01T04:38:49.608Z,7.0
2019-06-01T04:40:49.693Z,6.3
2019-06-01T04:42:49.796Z,6.7
2019-06-01T04:44:49.971Z,6.5
2019-06-01T04:46:50.179Z,6.5
2019-06-01T04:48:50.311Z,6.5
2019-06-01T04:50:49.545Z,6.2
2019-06-01T04:52:49.689Z,6.3
2019-06-01T04:54:49.765Z,5.9
2019-06-01T04:56:50.117Z,5.9
2019-06-01T04:58:50.378Z,5.9
2019-06-01T05:00:49.493Z,5.9
2019-06-01T05:02:56.535Z,5.6
2019-06-01T05:04:50.334Z,5.5
2019-06-01T05:06:49.561Z,5.7
2019-06-01T05:08:49.720Z,5.7
2019-06-01T05:10:49.822Z,5.7
2019-06-01T05:12:49.958Z,6.2
2019-06-01T05:14:50.052Z,6.0
2019-06-01T05:16:50.359Z,6.0
2019-06-01T05:18:49.683Z,6.0
2019-06-01T05:20:49.906Z,5.7
2019-06-01T05:22:50.409Z,5.7
2019-06-01T05:24:49.599Z,5.8
2019-06-01T05:26:50.000Z,5.6
2019-06-01T05:28:50.073Z,5.6
2019-06-01T05:30:50.226Z,5.5
2019-06-01T05:32:50.317Z,5.0
2019-06-01T05:34:50.066Z,5.1
2019-06-01T05:36:50.043Z,5.1
2019-06-01T05:38:50.318Z,4.3
2019-06-01T05:40:50.421Z,5.0
2019-06-01T05:42:49.525Z,4.8
2019-06-01T05:44:49.661Z,4.8
2019-06-01T05:46:49.929Z,4.9
2019-06-01T05:48:50.085Z,4.6
2019-06-01T05:50:50.336Z,4.5
2019-06-01T05:52:49.498Z,4.3
2019-06-01T05:54:49.684Z,4.3
2019-06-01T05:56:49.858Z,5.8
2019-06-01T05:58:50.097Z,5.8
2019-06-01T06:00:50.279Z,4.4
2019-06-01T06:02:49.473Z,4.4
2019-06-01T06:04:50.035Z,4.4
2019-06-01T06:06:50.286Z,4.0
2019-06-01T06:08:50.382Z,4.0
2019-06-01T06:10:49.519Z,4.1
2019-06-01T06:12:49.684Z,4.2
2019-06-01T06:14:49.823Z,4.2
2019-06-01T06:16:50.039Z,4.2
2019-06-01T06:18:50.172Z,3.7
2019-06-01T06:20:50.192Z,3.9
2019-06-01T06:22:50.274Z,4.0
2019-06-01T06:24:50.369Z,4.0
2019-06-01T06:26:49.676Z,4.0
2019-06-01T06:28:49.696Z,3.9
2019-06-01T06:30:49.833Z,3.5
2019-06-01T06:32:49.972Z,3.5
2019-06-01T06:34:49.549Z,3.6
2019-06-01T06:36:49.900Z,3.6
2019-06-01T06:38:50.125Z,3.6
2019-06-01T06:40:50.263Z,3.9
2019-06-01T06:42:50.398Z,3.9
2019-06-01T06:44:49.472Z,3.6
2019-06-01T06:46:49.786Z,3.6
2019-06-01T06:48:49.913Z,3.7
2019-06-01T06:50:49.984Z,3.3
2019-06-01T06:52:50.184Z,3.3
2019-06-01T06:54:50.322Z,3.0
2019-06-01T06:56:49.672Z,3.0
2019-06-01T06:58:49.919Z,3.5
2019-06-01T07:00:49.981Z,3.9
2019-06-01T07:02:50.264Z,3.9
2019-06-01T07:04:49.949Z,4.0
2019-06-01T07:06:50.164Z,5.4
2019-06-01T07:08:50.247Z,3.8
2019-06-01T07:10:50.405Z,3.6
2019-06-01T07:12:49.515Z,3.5
2019-06-01T07:14:49.687Z,3.5
2019-06-01T07:16:49.976Z,3.0
2019-06-01T07:18:50.074Z,3.1
2019-06-01T07:20:50.210Z,3.0
2019-06-01T07:22:50.430Z,3.0
2019-06-01T07:24:49.476Z,3.2
2019-06-01T07:26:49.877Z,7.8
2019-06-01T07:28:50.098Z,5.0
2019-06-01T07:30:50.786Z,6.5
2019-06-01T07:32:50.046Z,6.5
2019-06-01T07:34:49.775Z,8.8
2019-06-01T07:36:50.028Z,6.9
2019-06-01T07:38:50.325Z,4.5
2019-06-01T07:40:49.727Z,3.9
2019-06-01T07:42:49.842Z,3.9
2019-06-01T07:44:49.966Z,3.5
2019-06-01T07:46:50.177Z,3.2
2019-06-01T07:48:50.300Z,5.5
2019-06-01T07:50:50.326Z,5.5
2019-06-01T07:52:49.489Z,3.6
2019-06-01T07:54:49.574Z,4.5
2019-06-01T07:56:49.792Z,5.0
2019-06-01T07:58:49.960Z,4.7
2019-06-01T08:00:50.017Z,4.7
2019-06-01T08:02:50.080Z,3.7
2019-06-01T08:04:53.868Z,3.4
2019-06-01T08:06:50.152Z,4.5
2019-06-01T08:08:49.519Z,4.5
2019-06-01T08:10:49.748Z,2.6
2019-06-01T08:12:49.794Z,2.6
2019-06-01T08:14:49.878Z,3.1
2019-06-01T08:16:50.141Z,2.9
2019-06-01T08:18:53.030Z,4.3
2019-06-01T08:20:49.636Z,5.5
2019-06-01T08:22:49.751Z,5.5
2019-06-01T08:24:49.920Z,4.3
2019-06-01T08:26:50.250Z,4.3
2019-06-01T08:28:49.444Z,4.3
2019-06-01T08:30:49.523Z,4.3
2019-06-01T08:32:49.721Z,2.3
2019-06-01T08:35:04.709Z,2.8
2019-06-01T08:36:49.479Z,2.2
2019-06-01T08:38:49.527Z,2.2
2019-06-01T08:40:49.714Z,9.2
2019-06-01T08:42:49.890Z,2.6
2019-06-01T08:44:49.975Z,2.1
2019-06-01T08:46:50.258Z,2.1
2019-06-01T08:48:50.290Z,2.1
2019-06-01T08:50:50.345Z,2.4
2019-06-01T08:52:49.518Z,1.9
2019-06-01T08:54:49.564Z,1.6
2019-06-01T08:56:49.810Z,2.7
2019-06-01T08:58:49.959Z,2.7
2019-06-01T09:00:50.147Z,5.2
2019-06-01T09:02:50.272Z,3.5
2019-06-01T09:04:49.877Z,2.4
2019-06-01T09:06:50.066Z,4.6
2019-06-01T09:08:50.279Z,4.6
2019-06-01T09:10:50.324Z,2.4
2019-06-01T09:12:49.467Z,2.8
2019-06-01T09:14:49.618Z,2.3
2019-06-01T09:16:49.849Z,2.3
2019-06-01T09:18:49.939Z,1.9
2019-06-01T09:20:50.135Z,1.9
2019-06-01T09:22:50.231Z,1.7
2019-06-01T09:24:53.224Z,2.8
2019-06-01T09:26:49.857Z,2.8
2019-06-01T09:28:49.974Z,1.8
2019-06-01T09:30:50.090Z,1.8
2019-06-01T09:32:50.238Z,2.3
2019-06-01T09:34:49.893Z,1.8
2019-06-01T09:36:50.087Z,1.8
2019-06-01T09:38:50.181Z,3.3
2019-06-01T09:40:50.397Z,2.1
2019-06-01T09:42:49.672Z,1.8
2019-06-01T09:44:49.729Z,1.8
2019-06-01T09:46:50.070Z,2.4
2019-06-01T09:48:50.135Z,3.0
2019-06-01T09:50:50.298Z,2.5
2019-06-01T09:52:49.453Z,2.0
2019-06-01T09:54:49.533Z,2.0
2019-06-01T09:56:49.813Z,1.6
2019-06-01T09:58:49.919Z,2.2
2019-06-01T10:00:50.048Z,2.8
2019-06-01T10:02:50.125Z,3.3
2019-06-01T10:04:49.657Z,3.3
2019-06-01T10:06:49.761Z,1.8
2019-06-01T10:08:49.830Z,3.0
2019-06-01T10:10:49.933Z,1.8
2019-06-01T10:12:50.106Z,2.0
2019-06-01T10:14:50.169Z,2.0
2019-06-01T10:16:49.432Z,1.9
2019-06-01T10:18:49.506Z,1.9
2019-06-01T10:20:49.590Z,2.1
2019-06-01T10:22:49.753Z,2.3
2019-06-01T10:24:49.927Z,2.3
2019-06-01T10:26:50.216Z,2.1
2019-06-01T10:28:50.357Z,2.1
2019-06-01T10:30:50.475Z,2.3
2019-06-01T10:32:49.523Z,2.3
2019-06-01T10:34:50.074Z,2.1
2019-06-01T10:36:50.419Z,1.8
2019-06-01T10:38:49.649Z,1.8
2019-06-01T10:40:49.733Z,1.7
2019-06-01T10:42:49.942Z,1.9
2019-06-01T10:44:50.052Z,1.8
2019-06-01T10:46:50.264Z,1.8
2019-06-01T10:48:50.431Z,2.1
2019-06-01T10:50:49.757Z,1.9
2019-06-01T10:52:50.005Z,1.9
2019-06-01T10:54:50.226Z,2.1
2019-06-01T10:56:49.619Z,2.1
2019-06-01T10:58:58.959Z,1.9
2019-06-01T11:00:50.946Z,2.0
2019-06-01T11:02:49.989Z,4.0
2019-06-01T11:04:49.670Z,4.0
2019-06-01T11:06:49.857Z,2.7
2019-06-01T11:08:49.989Z,1.7
2019-06-01T11:10:50.154Z,1.9
2019-06-01T11:12:50.342Z,1.9
2019-06-01T11:14:49.682Z,1.8
2019-06-01T11:16:55.923Z,1.8
2019-06-01T11:18:50.071Z,3.7
2019-06-01T11:20:50.161Z,1.8
2019-06-01T11:22:50.297Z,1.8
2019-06-01T11:24:50.367Z,3.0
2019-06-01T11:26:49.870Z,1.6
2019-06-01T11:28:50.050Z,1.7
2019-06-01T11:30:50.201Z,1.7
2019-06-01T11:32:50.307Z,1.9
2019-06-01T11:34:49.979Z,2.1
2019-06-01T11:37:04.026Z,1.9
2019-06-01T11:38:50.334Z,2.4
2019-06-01T11:40:49.442Z,2.4
2019-06-01T11:42:49.549Z,1.6
2019-06-01T11:44:49.754Z,1.8
2019-06-01T11:46:50.095Z,1.8
2019-06-01T11:48:50.065Z,1.9
2019-06-01T11:50:50.323Z,1.9
2019-06-01T11:52:49.486Z,1.5
2019-06-01T11:54:49.707Z,1.5
2019-06-01T11:56:49.947Z,1.7
2019-06-01T11:58:50.080Z,1.7
2019-06-01T12:00:50.163Z,1.7
2019-06-01T12:02:50.272Z,1.3
2019-06-01T12:04:49.890Z,1.3
2019-06-01T12:06:50.294Z,1.3
2019-06-01T12:08:50.382Z,1.6
2019-06-01T12:10:49.500Z,1.9
2019-06-01T12:12:49.740Z,1.9
2019-06-01T12:14:49.959Z,1.4
2019-06-01T12:16:50.309Z,3.4
2019-06-01T12:18:49.507Z,1.6
2019-06-01T12:20:49.766Z,1.6
2019-06-01T12:22:49.896Z,1.6
2019-06-01T12:24:50.055Z,1.4
2019-06-01T12:26:50.174Z,1.8
2019-06-01T12:28:50.393Z,1.6
2019-06-01T12:30:49.546Z,1.6
2019-06-01T12:32:49.615Z,1.5
2019-06-01T12:34:50.323Z,1.6
2019-06-01T12:36:49.659Z,1.6
2019-06-01T12:38:49.762Z,1.6
2019-06-01T12:40:49.905Z,1.6
2019-06-01T12:42:50.357Z,1.5
2019-06-01T12:44:50.042Z,1.2
2019-06-01T12:46:50.245Z,1.9
2019-06-01T12:48:50.414Z,1.9
2019-06-01T12:50:50.830Z,1.2
2019-06-01T12:52:49.587Z,1.3
2019-06-01T12:54:49.713Z,1.2
2019-06-01T12:56:49.986Z,1.3
2019-06-01T12:58:50.128Z,1.3
2019-06-01T13:00:50.166Z,1.3
2019-06-01T13:02:56.133Z,1.4
2019-06-01T13:04:49.690Z,1.4
2019-06-01T13:06:52.281Z,1.4
2019-06-01T13:08:50.264Z,1.7
2019-06-01T13:10:50.417Z,1.7
2019-06-01T13:12:49.938Z,1.1
2019-06-01T13:14:52.156Z,1.1
2019-06-01T13:17:01.995Z,1.1
2019-06-01T13:18:49.616Z,1.1
2019-06-01T13:20:49.722Z,1.1
2019-06-01T13:22:50.026Z,1.3
2019-06-01T13:24:49.905Z,2.0
2019-06-01T13:26:50.196Z,2.0
2019-06-01T13:28:50.495Z,1.4
2019-06-01T13:30:51.054Z,1.4
2019-06-01T13:32:50.728Z,1.2
2019-06-01T13:34:51.307Z,1.4
2019-06-01T13:36:50.842Z,1.6
2019-06-01T13:38:50.852Z,1.6
2019-06-01T13:40:51.028Z,1.4
2019-06-01T13:42:51.186Z,1.5
2019-06-01T13:44:49.618Z,1.6
2019-06-01T13:46:49.887Z,1.6
2019-06-01T13:48:52.245Z,1.8
2019-06-01T13:50:50.188Z,2.1
2019-06-01T13:52:50.263Z,1.7
2019-06-01T13:54:50.631Z,2.7
2019-06-01T13:56:50.922Z,2.7
2019-06-01T13:58:50.360Z,1.7
2019-06-01T14:00:50.894Z,1.7
2019-06-01T14:02:52.460Z,1.4
2019-06-01T14:04:50.404Z,1.4
2019-06-01T14:06:51.142Z,1.5
2019-06-01T14:08:51.069Z,1.6
2019-06-01T14:10:51.244Z,1.3
2019-06-01T14:12:49.500Z,1.4
2019-06-01T14:14:49.568Z,1.4
2019-06-01T14:16:49.966Z,1.5
2019-06-01T14:18:49.723Z,1.5
2019-06-01T14:20:49.875Z,1.3
2019-06-01T14:22:49.860Z,1.4
2019-06-01T14:24:59.581Z,1.4
2019-06-01T14:26:50.145Z,1.4
2019-06-01T14:28:50.232Z,1.4
2019-06-01T14:30:50.391Z,1.5
2019-06-01T14:32:50.301Z,1.5
2019-06-01T14:34:50.932Z,1.5
2019-06-01T14:36:50.505Z,1.5
2019-06-01T14:38:52.912Z,1.4
2019-06-01T14:40:51.807Z,1.4
2019-06-01T14:42:51.939Z,1.4
2019-06-01T14:44:49.504Z,1.3
2019-06-01T14:46:54.716Z,1.3
2019-06-01T14:48:51.184Z,1.4
2019-06-01T14:50:49.600Z,1.4
2019-06-01T14:52:49.727Z,1.3
2019-06-01T14:54:49.911Z,1.3
2019-06-01T14:56:49.736Z,1.4
2019-06-01T14:58:49.960Z,1.6
2019-06-01T15:00:50.299Z,3.8
2019-06-01T15:02:50.431Z,1.5
2019-06-01T15:04:50.343Z,1.5
2019-06-01T15:06:50.185Z,1.4
2019-06-01T15:09:10.340Z,1.4
2019-06-01T15:10:50.453Z,1.4
2019-06-01T15:12:53.399Z,1.4
2019-06-01T15:14:50.889Z,1.5
2019-06-01T15:16:51.656Z,1.3
2019-06-01T15:18:49.943Z,1.4
2019-06-01T15:20:49.716Z,1.3
2019-06-01T15:22:50.042Z,1.3
2019-06-01T15:24:50.399Z,1.4
2019-06-01T15:26:50.462Z,1.4
2019-06-01T15:28:50.543Z,1.4
2019-06-01T15:30:50.821Z,1.4
2019-06-01T15:32:50.136Z,2.4
2019-06-01T15:34:50.302Z,1.3
2019-06-01T15:36:49.728Z,1.2
2019-06-01T15:38:49.528Z,1.2
2019-06-01T15:40:49.736Z,1.1
2019-06-01T15:42:51.770Z,1.5
2019-06-01T15:44:50.977Z,1.5
2019-06-01T15:46:51.419Z,2.1
2019-06-01T15:48:49.789Z,2.1
2019-06-01T15:50:49.535Z,1.2
2019-06-01T15:52:49.717Z,1.2
2019-06-01T15:54:49.798Z,1.2
2019-06-01T15:56:50.241Z,1.7
2019-06-01T15:58:53.427Z,1.3
2019-06-01T16:00:50.354Z,1.3
2019-06-01T16:02:49.574Z,1.3
2019-06-01T16:04:50.093Z,1.4
2019-06-01T16:06:50.418Z,1.2
2019-06-01T16:08:49.582Z,1.1
2019-06-01T16:10:49.746Z,1.2
2019-06-01T16:12:49.904Z,1.2
2019-06-01T16:14:50.143Z,1.3
2019-06-01T16:16:50.389Z,1.5
2019-06-01T16:18:49.467Z,2.6
2019-06-01T16:20:49.674Z,2.6
2019-06-01T16:22:49.783Z,1.6
2019-06-01T16:24:50.003Z,1.7
2019-06-01T16:26:50.218Z,1.7
2019-06-01T16:28:50.306Z,1.6
2019-06-01T16:30:49.483Z,1.6
2019-06-01T16:32:49.546Z,1.4
2019-06-01T16:34:50.277Z,1.7
2019-06-01T16:36:49.708Z,1.8
2019-06-01T16:38:49.767Z,1.8
2019-06-01T16:40:49.893Z,1.1
2019-06-01T16:42:50.086Z,2.0
2019-06-01T16:44:50.234Z,2.0
2019-06-01T16:46:49.541Z,2.1
2019-06-01T16:48:49.708Z,2.4
2019-06-01T16:50:49.793Z,1.6
2019-06-01T16:52:49.997Z,1.3
2019-06-01T16:54:50.126Z,1.5
2019-06-01T16:56:50.399Z,1.8
2019-06-01T16:58:49.556Z,1.8
2019-06-01T17:00:49.634Z,1.8
2019-06-01T17:02:49.803Z,1.7
2019-06-01T17:04:50.388Z,1.7
2019-06-01T17:06:49.779Z,1.3
2019-06-01T17:08:49.962Z,1.4
2019-06-01T17:10:50.131Z,2.1
2019-06-01T17:12:50.282Z,2.6
2019-06-01T17:14:50.381Z,2.0
2019-06-01T17:16:49.562Z,2.0
2019-06-01T17:18:49.754Z,1.5
2019-06-01T17:20:49.959Z,1.6
2019-06-01T17:22:50.174Z,3.0
2019-06-01T17:24:50.398Z,3.0
2019-06-01T17:26:49.641Z,1.6
2019-06-01T17:28:49.649Z,3.0
2019-06-01T17:30:49.904Z,3.0
2019-06-01T17:32:49.586Z,1.5
2019-06-01T17:34:50.209Z,1.7
2019-06-01T17:36:49.432Z,1.7
2019-06-01T17:38:49.523Z,2.0
2019-06-01T17:40:49.614Z,1.9
2019-06-01T17:42:49.724Z,1.9
2019-06-01T17:44:49.829Z,1.5
2019-06-01T17:46:52.673Z,1.5
2019-06-01T17:48:50.307Z,1.5
2019-06-01T17:50:49.483Z,1.7
2019-06-01T17:52:49.673Z,2.1
2019-06-01T17:54:49.743Z,2.4
2019-06-01T17:56:49.959Z,2.4
2019-06-01T17:58:50.100Z,1.9
2019-06-01T18:00:50.231Z,1.6
2019-06-01T18:02:50.348Z,1.4
2019-06-01T18:04:50.051Z,1.7
2019-06-01T18:06:50.287Z,1.7
2019-06-01T18:08:50.357Z,1.7
2019-06-01T18:10:53.706Z,2.4
2019-06-01T18:12:50.352Z,2.4
2019-06-01T18:14:49.486Z,2.8
2019-06-01T18:16:49.888Z,2.7
2019-06-01T18:18:50.006Z,1.8
2019-06-01T18:20:50.060Z,2.2
2019-06-01T18:22:50.228Z,2.6
2019-06-01T18:24:50.385Z,2.6
2019-06-01T18:26:49.598Z,2.3
2019-06-01T18:28:49.767Z,3.0
2019-06-01T18:30:49.841Z,2.8
2019-06-01T18:32:49.949Z,3.0
2019-06-01T18:34:49.439Z,3.0
2019-06-01T18:36:49.738Z,1.9
2019-06-01T18:38:49.978Z,1.9
2019-06-01T18:40:50.103Z,2.1
2019-06-01T18:42:50.267Z,2.3
2019-06-01T18:44:50.414Z,2.3
2019-06-01T18:46:49.748Z,3.2
2019-06-01T18:48:49.780Z,2.7
2019-06-01T18:50:49.959Z,2.2
2019-06-01T18:52:50.169Z,2.6
2019-06-01T18:54:50.180Z,2.5
2019-06-01T18:56:49.565Z,2.5
2019-06-01T18:58:49.659Z,2.1
2019-06-01T19:00:49.750Z,2.1
2019-06-01T19:02:49.995Z,2.8
2019-06-01T19:04:49.643Z,5.2
2019-06-01T19:06:49.966Z,5.2
2019-06-01T19:08:50.014Z,3.5
2019-06-01T19:10:50.485Z,5.9
2019-06-01T19:12:50.435Z,5.0
2019-06-01T19:14:49.531Z,5.0
2019-06-01T19:16:49.871Z,6.6
2019-06-01T19:18:49.937Z,5.9
2019-06-01T19:20:50.028Z,5.6
2019-06-01T19:22:50.292Z,4.5
2019-06-01T19:24:49.494Z,4.5
2019-06-01T19:26:49.746Z,5.2
2019-06-01T19:28:49.935Z,3.5
2019-06-01T19:30:50.013Z,4.5
2019-06-01T19:32:50.134Z,4.5
2019-06-01T19:34:49.736Z,4.8
2019-06-01T19:36:50.098Z,5.8
2019-06-01T19:38:50.216Z,6.2
2019-06-01T19:40:50.412Z,5.7
2019-06-01T19:42:49.535Z,5.7
2019-06-01T19:44:49.728Z,6.7
2019-06-01T19:46:49.954Z,9.9
2019-06-01T19:48:50.093Z,14.3
2019-06-01T19:50:50.129Z,14.3
2019-06-01T19:52:50.282Z,16.6
2019-06-01T19:54:50.602Z,16.4
2019-06-01T19:56:49.950Z,10.0
2019-06-01T19:58:50.044Z,9.9
2019-06-01T20:00:50.218Z,9.9
2019-06-01T20:02:50.334Z,9.9
2019-06-01T20:04:50.151Z,7.7
2019-06-01T20:06:50.331Z,8.8
2019-06-01T20:08:49.520Z,8.2
2019-06-01T20:10:49.577Z,7.0
2019-06-01T20:12:49.685Z,7.0
2019-06-01T20:14:49.777Z,8.6
2019-06-01T20:16:49.918Z,9.6
2019-06-01T20:18:50.121Z,9.4
2019-06-01T20:20:50.350Z,9.4
2019-06-01T20:22:50.370Z,9.5
2019-06-01T20:24:49.553Z,8.5
2019-06-01T20:26:49.838Z,8.8
2019-06-01T20:28:50.013Z,8.8
2019-06-01T20:30:50.273Z,8.6
2019-06-01T20:32:49.507Z,9.1
2019-06-01T20:34:50.163Z,9.5
2019-06-01T20:36:49.596Z,10.7
2019-06-01T20:38:49.641Z,10.7
2019-06-01T20:40:49.756Z,9.1
2019-06-01T20:42:49.885Z,10.1
2019-06-01T20:44:50.069Z,10.1
2019-06-01T20:46:50.341Z,10.7
2019-06-01T20:48:49.483Z,10.7
2019-06-01T20:50:49.581Z,9.2
2019-06-01T20:52:49.638Z,8.8
2019-06-01T20:54:49.810Z,7.0
2019-06-01T20:56:50.164Z,7.6
2019-06-01T20:58:50.197Z,7.2
2019-06-01T21:00:50.258Z,7.2
2019-06-01T21:02:50.366Z,6.1
2019-06-01T21:04:50.168Z,8.2
2019-06-01T21:06:49.478Z,6.0
2019-06-01T21:08:49.694Z,6.0
2019-06-01T21:10:49.788Z,6.1
2019-06-01T21:12:50.006Z,6.0
2019-06-01T21:14:50.113Z,5.9
2019-06-01T21:16:50.355Z,6.0
2019-06-01T21:18:50.044Z,6.0
2019-06-01T21:20:50.215Z,5.7
2019-06-01T21:22:50.425Z,5.5
2019-06-01T21:24:49.652Z,5.7
2019-06-01T21:26:49.865Z,5.7
2019-06-01T21:28:49.976Z,5.9
2019-06-01T21:30:50.176Z,5.9
2019-06-01T21:32:50.270Z,5.5
2019-06-01T21:34:49.936Z,5.5
2019-06-01T21:36:50.171Z,5.5
2019-06-01T21:38:50.306Z,5.5
2019-06-01T21:40:49.468Z,5.9
2019-06-01T21:43:00.818Z,5.3
2019-06-01T21:44:49.565Z,5.8
2019-06-01T21:46:50.015Z,5.8
2019-06-01T21:48:50.146Z,5.8
2019-06-01T21:50:50.302Z,5.2
2019-06-01T21:52:49.481Z,5.2
2019-06-01T21:54:49.513Z,6.4
2019-06-01T21:56:49.836Z,5.8
2019-06-01T21:58:50.034Z,6.5
2019-06-01T22:00:50.068Z,5.9
2019-06-01T22:02:50.252Z,6.0
2019-06-01T22:04:49.890Z,6.2
2019-06-01T22:06:50.180Z,6.2
2019-06-01T22:08:52.424Z,6.2
2019-06-01T22:10:50.348Z,6.2
2019-06-01T22:12:50.422Z,5.9
2019-06-01T22:14:49.612Z,6.2
2019-06-01T22:16:49.958Z,6.2
2019-06-01T22:18:50.028Z,6.5
2019-06-01T22:20:50.134Z,6.4
2019-06-01T22:22:50.248Z,6.3
2019-06-01T22:24:50.368Z,6.1
2019-06-01T22:26:49.630Z,6.1
2019-06-01T22:28:49.674Z,5.7
2019-06-01T22:30:49.960Z,5.7
2019-06-01T22:32:50.092Z,6.2
2019-06-01T22:34:49.672Z,6.2
2019-06-01T22:36:49.968Z,6.1
2019-06-01T22:38:50.029Z,6.3
2019-06-01T22:40:50.092Z,6.6
2019-06-01T22:42:50.191Z,6.2
2019-06-01T22:44:50.296Z,6.2
2019-06-01T22:46:49.658Z,6.1
2019-06-01T22:48:49.787Z,6.2
2019-06-01T22:50:49.835Z,6.3
2019-06-01T22:52:50.163Z,7.3
2019-06-01T22:54:50.284Z,7.3
2019-06-01T22:56:49.682Z,6.4
2019-06-01T22:58:49.775Z,6.6
2019-06-01T23:00:50.011Z,6.2
2019-06-01T23:02:50.163Z,6.2
2019-06-01T23:04:49.831Z,6.1
2019-06-01T23:06:50.209Z,5.8
2019-06-01T23:08:50.379Z,5.8
2019-06-01T23:10:50.376Z,6.3
2019-06-01T23:12:49.429Z,6.3
2019-06-01T23:14:49.529Z,6.1
2019-06-01T23:16:49.790Z,6.1
2019-06-01T23:18:49.919Z,6.3
2019-06-01T23:20:50.031Z,6.3
2019-06-01T23:22:50.117Z,5.6
2019-06-01T23:24:50.279Z,5.7
2019-06-01T23:26:49.637Z,5.7
2019-06-01T23:28:49.803Z,6.6
2019-06-01T23:30:49.865Z,6.1
2019-06-01T23:32:49.965Z,6.1
2019-06-01T23:34:49.655Z,6.4
2019-06-01T23:36:49.960Z,6.0
2019-06-01T23:38:50.051Z,6.4
2019-06-01T23:40:50.214Z,6.3
2019-06-01T23:42:50.211Z,6.6
2019-06-01T23:44:50.375Z,6.6
2019-06-01T23:46:49.682Z,6.5
2019-06-01T23:48:49.688Z,6.5
2019-06-01T23:50:49.846Z,6.0
2019-06-01T23:52:50.081Z,6.0
2019-06-01T23:54:50.176Z,6.2
2019-06-01T23:56:50.338Z,6.3
2019-06-01T23:58:49.499Z,6.2
